Portada
METAR-TAF:

METAR-TAF

Aeroports :

Mahajanga, Madagascar

latitud: 15-40S, longitud: 046-21E, altitud: 26 m

Observació

L'informe es va fer fa 27 minuts, a les 12:00 UTC
Vent 6 kt del Sud-Oest, variant entre Sud i Oest
Temperatura 35°C
Humitat 42%
Pressió 1012 hPa
Visibilitat 10 km o més
Escasses núvols a una alçada de 2300 ft

METAR: FMNM 301200Z 23006KT 170V280 9999 FEW023 35/20 Q1012 NOSIG

Hora: 15:27 (12:27 UTC)

Pronòstic

L'informe es va fer fa 1 hora i 27 minuts, a les 11:00 UTC
Pronòstic vàlid del 30 a les 12 UTC al 31 a les 12 UTC
Vent 10 kt del Oest/Nord-Oest
Visibilitat 10 km o més
Escasses núvols a una alçada de 2000 ft
Evolucionant progressivament
l' 30 a les 19 UTC al 30 a les 22 UTC
Vent 5 kt del Sud-Est

TAF: FMNM 301100Z 3012/3112 30010KT 9999 FEW020 BECMG 3019/3022 14005KT

Observacions i pronòstics meteorològics de més de 4000 aeroports (METAR i TAF).

Les estacions disponibles són els punts grocs i vermells al mapa.

Posi el ratolí al punt desitjat per veure el nom de l'estació.

Feu clic per veure les observacions i els pronòstics meteorològics.

Per canviar el mapa: feu clic els botons verds amb una creu de color negre per apropar; al botó verd amb un guió per allunyar la imatge; o en les fletxes verdes per a mapes adjacents.


METAR-TAF: